sensor_id;sensor_type;location;lat;lon;timestamp;temperature;humidity
17893;DHT22;9072;51.918;4.380;2023-12-29T00:00:28;10.60;99.90
17893;DHT22;9072;51.918;4.380;2023-12-29T00:03:27;10.60;99.90
17893;DHT22;9072;51.918;4.380;2023-12-29T00:06:32;10.60;99.90
17893;DHT22;9072;51.918;4.380;2023-12-29T00:12:13;10.50;99.90
17893;DHT22;9072;51.918;4.380;2023-12-29T00:17:42;10.50;99.90
17893;DHT22;9072;51.918;4.380;2023-12-29T00:20:25;10.40;99.90
17893;DHT22;9072;51.918;4.380;2023-12-29T00:23:06;10.30;99.90
17893;DHT22;9072;51.918;4.380;2023-12-29T00:25:41;10.20;99.90
17893;DHT22;9072;51.918;4.380;2023-12-29T00:28:23;10.20;99.90
17893;DHT22;9072;51.918;4.380;2023-12-29T00:32:16;10.20;99.90
17893;DHT22;9072;51.918;4.380;2023-12-29T00:34:10;10.10;99.90
17893;DHT22;9072;51.918;4.380;2023-12-29T00:36:58;10.20;99.90
17893;DHT22;9072;51.918;4.380;2023-12-29T00:39:44;10.20;99.90
17893;DHT22;9072;51.918;4.380;2023-12-29T00:42:31;10.10;99.90
17893;DHT22;9072;51.918;4.380;2023-12-29T00:45:26;10.10;99.90
17893;DHT22;9072;51.918;4.380;2023-12-29T00:48:32;10.10;99.90
17893;DHT22;9072;51.918;4.380;2023-12-29T00:51:09;10.10;99.90
17893;DHT22;9072;51.918;4.380;2023-12-29T00:53:48;10.10;99.90
17893;DHT22;9072;51.918;4.380;2023-12-29T00:56:37;10.10;99.90
17893;DHT22;9072;51.918;4.380;2023-12-29T00:59:21;10.10;99.90
17893;DHT22;9072;51.918;4.380;2023-12-29T01:05:34;10.10;99.90
17893;DHT22;9072;51.918;4.380;2023-12-29T01:08:16;10.10;99.90
17893;DHT22;9072;51.918;4.380;2023-12-29T01:14:01;10.10;99.90
17893;DHT22;9072;51.918;4.380;2023-12-29T01:16:42;10.10;99.90
17893;DHT22;9072;51.918;4.380;2023-12-29T01:19:33;10.00;99.90
17893;DHT22;9072;51.918;4.380;2023-12-29T01:22:21;10.00;99.90
17893;DHT22;9072;51.918;4.380;2023-12-29T01:25:22;10.00;99.90
17893;DHT22;9072;51.918;4.380;2023-12-29T01:27:55;10.10;99.90
17893;DHT22;9072;51.918;4.380;2023-12-29T01:30:42;10.10;99.90
17893;DHT22;9072;51.918;4.380;2023-12-29T01:33:18;10.10;99.90
17893;DHT22;9072;51.918;4.380;2023-12-29T01:36:01;10.10;99.90
17893;DHT22;9072;51.918;4.380;2023-12-29T01:39:17;10.10;99.90
17893;DHT22;9072;51.918;4.380;2023-12-29T01:42:08;10.00;99.90
17893;DHT22;9072;51.918;4.380;2023-12-29T01:44:39;10.00;99.90
17893;DHT22;9072;51.918;4.380;2023-12-29T01:47:47;10.00;99.90
17893;DHT22;9072;51.918;4.380;2023-12-29T01:50:26;10.10;99.90
17893;DHT22;9072;51.918;4.380;2023-12-29T01:53:16;10.00;99.90
17893;DHT22;9072;51.918;4.380;2023-12-29T01:59:10;10.10;99.90
17893;DHT22;9072;51.918;4.380;2023-12-29T02:02:00;10.10;99.90
17893;DHT22;9072;51.918;4.380;2023-12-29T02:04:31;10.10;99.90
17893;DHT22;9072;51.918;4.380;2023-12-29T02:07:32;10.10;99.90
17893;DHT22;9072;51.918;4.380;2023-12-29T02:10:14;10.10;99.90
17893;DHT22;9072;51.918;4.380;2023-12-29T02:19:24;10.10;99.90
17893;DHT22;9072;51.918;4.380;2023-12-29T02:22:16;10.10;99.90
17893;DHT22;9072;51.918;4.380;2023-12-29T02:25:13;10.10;99.90
17893;DHT22;9072;51.918;4.380;2023-12-29T02:27:57;10.20;99.90
17893;DHT22;9072;51.918;4.380;2023-12-29T02:33:27;10.20;99.90
17893;DHT22;9072;51.918;4.380;2023-12-29T02:46:03;10.20;99.90
17893;DHT22;9072;51.918;4.380;2023-12-29T02:49:00;10.10;99.90
17893;DHT22;9072;51.918;4.380;2023-12-29T02:52:08;10.10;99.90
17893;DHT22;9072;51.918;4.380;2023-12-29T02:55:00;10.10;99.90
17893;DHT22;9072;51.918;4.380;2023-12-29T02:58:06;10.20;99.90
17893;DHT22;9072;51.918;4.380;2023-12-29T03:04:38;10.20;99.90
17893;DHT22;9072;51.918;4.380;2023-12-29T03:07:23;10.20;99.90
17893;DHT22;9072;51.918;4.380;2023-12-29T03:10:02;10.30;99.90
17893;DHT22;9072;51.918;4.380;2023-12-29T03:12:49;10.30;99.90
17893;DHT22;9072;51.918;4.380;2023-12-29T03:15:22;10.30;99.90
17893;DHT22;9072;51.918;4.380;2023-12-29T03:18:05;10.20;99.90
17893;DHT22;9072;51.918;4.380;2023-12-29T03:20:59;10.20;99.90
17893;DHT22;9072;51.918;4.380;2023-12-29T03:23:46;10.20;99.90
17893;DHT22;9072;51.918;4.380;2023-12-29T03:26:29;10.20;99.90
17893;DHT22;9072;51.918;4.380;2023-12-29T03:29:31;10.20;99.90
17893;DHT22;9072;51.918;4.380;2023-12-29T03:32:29;10.30;99.90
17893;DHT22;9072;51.918;4.380;2023-12-29T03:38:33;10.20;99.90
17893;DHT22;9072;51.918;4.380;2023-12-29T03:41:13;10.30;99.90
17893;DHT22;9072;51.918;4.380;2023-12-29T03:43:50;10.30;99.90
17893;DHT22;9072;51.918;4.380;2023-12-29T03:46:35;10.30;99.90
17893;DHT22;9072;51.918;4.380;2023-12-29T03:49:34;10.30;99.90
17893;DHT22;9072;51.918;4.380;2023-12-29T03:52:29;10.30;99.90
17893;DHT22;9072;51.918;4.380;2023-12-29T03:59:00;10.30;99.90
17893;DHT22;9072;51.918;4.380;2023-12-29T04:02:09;10.20;99.90
17893;DHT22;9072;51.918;4.380;2023-12-29T04:05:15;10.20;99.90
17893;DHT22;9072;51.918;4.380;2023-12-29T04:08:06;10.20;99.90
17893;DHT22;9072;51.918;4.380;2023-12-29T04:10:45;10.10;99.90
17893;DHT22;9072;51.918;4.380;2023-12-29T04:16:48;10.10;99.90
17893;DHT22;9072;51.918;4.380;2023-12-29T04:20:10;10.10;99.90
17893;DHT22;9072;51.918;4.380;2023-12-29T04:23:05;10.10;99.90
17893;DHT22;9072;51.918;4.380;2023-12-29T04:26:34;10.10;99.90
17893;DHT22;9072;51.918;4.380;2023-12-29T04:29:40;10.20;99.90
17893;DHT22;9072;51.918;4.380;2023-12-29T04:36:21;10.20;99.90
17893;DHT22;9072;51.918;4.380;2023-12-29T04:39:14;10.20;99.90
17893;DHT22;9072;51.918;4.380;2023-12-29T04:52:28;10.20;99.90
17893;DHT22;9072;51.918;4.380;2023-12-29T04:55:31;10.10;99.90
17893;DHT22;9072;51.918;4.380;2023-12-29T04:58:32;10.10;99.90
17893;DHT22;9072;51.918;4.380;2023-12-29T05:05:48;10.10;99.90
17893;DHT22;9072;51.918;4.380;2023-12-29T05:08:20;10.10;99.90
17893;DHT22;9072;51.918;4.380;2023-12-29T05:11:23;10.10;99.90
17893;DHT22;9072;51.918;4.380;2023-12-29T05:17:04;10.10;99.90
17893;DHT22;9072;51.918;4.380;2023-12-29T05:19:40;10.10;99.90
17893;DHT22;9072;51.918;4.380;2023-12-29T05:22:08;10.10;99.90
17893;DHT22;9072;51.918;4.380;2023-12-29T05:25:08;10.10;99.90
17893;DHT22;9072;51.918;4.380;2023-12-29T05:28:09;10.10;99.90
17893;DHT22;9072;51.918;4.380;2023-12-29T05:30:48;10.10;99.90
17893;DHT22;9072;51.918;4.380;2023-12-29T05:33:29;10.10;99.90
17893;DHT22;9072;51.918;4.380;2023-12-29T05:36:22;10.10;99.90
17893;DHT22;9072;51.918;4.380;2023-12-29T05:39:18;10.00;99.90
17893;DHT22;9072;51.918;4.380;2023-12-29T05:41:50;10.10;99.90
17893;DHT22;9072;51.918;4.380;2023-12-29T05:44:31;10.10;99.90
17893;DHT22;9072;51.918;4.380;2023-12-29T05:47:02;10.10;99.90
17893;DHT22;9072;51.918;4.380;2023-12-29T05:49:31;10.10;99.90
17893;DHT22;9072;51.918;4.380;2023-12-29T06:06:20;9.90;99.90
17893;DHT22;9072;51.918;4.380;2023-12-29T06:19:07;9.60;99.90
17893;DHT22;9072;51.918;4.380;2023-12-29T06:22:09;9.60;99.90
17893;DHT22;9072;51.918;4.380;2023-12-29T06:27:20;9.60;99.90
17893;DHT22;9072;51.918;4.380;2023-12-29T06:30:12;9.60;99.90
17893;DHT22;9072;51.918;4.380;2023-12-29T06:33:13;9.60;99.90
17893;DHT22;9072;51.918;4.380;2023-12-29T06:36:01;9.60;99.90
17893;DHT22;9072;51.918;4.380;2023-12-29T06:45:30;9.60;99.90
17893;DHT22;9072;51.918;4.380;2023-12-29T06:50:58;9.60;99.90
17893;DHT22;9072;51.918;4.380;2023-12-29T06:53:30;9.60;99.90
17893;DHT22;9072;51.918;4.380;2023-12-29T06:56:12;9.60;99.90
17893;DHT22;9072;51.918;4.380;2023-12-29T06:58:44;9.70;99.90
17893;DHT22;9072;51.918;4.380;2023-12-29T07:08:24;9.70;99.90
17893;DHT22;9072;51.918;4.380;2023-12-29T07:15:18;9.70;99.90
17893;DHT22;9072;51.918;4.380;2023-12-29T07:17:04;9.70;99.90
17893;DHT22;9072;51.918;4.380;2023-12-29T07:19:45;9.70;99.90
17893;DHT22;9072;51.918;4.380;2023-12-29T07:22:41;9.70;99.90
17893;DHT22;9072;51.918;4.380;2023-12-29T07:25:31;9.70;99.90
17893;DHT22;9072;51.918;4.380;2023-12-29T07:28:11;9.80;99.90
17893;DHT22;9072;51.918;4.380;2023-12-29T07:31:02;9.80;99.90
17893;DHT22;9072;51.918;4.380;2023-12-29T07:33:38;9.80;99.90
17893;DHT22;9072;51.918;4.380;2023-12-29T07:39:25;9.80;99.90
17893;DHT22;9072;51.918;4.380;2023-12-29T07:42:05;9.80;99.90
17893;DHT22;9072;51.918;4.380;2023-12-29T07:44:44;9.80;99.90
17893;DHT22;9072;51.918;4.380;2023-12-29T07:47:16;9.90;99.90
17893;DHT22;9072;51.918;4.380;2023-12-29T07:50:01;9.90;99.90
17893;DHT22;9072;51.918;4.380;2023-12-29T07:52:51;9.90;99.90
17893;DHT22;9072;51.918;4.380;2023-12-29T07:55:38;9.90;99.90
17893;DHT22;9072;51.918;4.380;2023-12-29T07:58:16;9.90;99.90
17893;DHT22;9072;51.918;4.380;2023-12-29T08:00:47;9.90;99.90
17893;DHT22;9072;51.918;4.380;2023-12-29T08:03:29;9.90;99.90
17893;DHT22;9072;51.918;4.380;2023-12-29T08:06:05;9.80;99.90
17893;DHT22;9072;51.918;4.380;2023-12-29T08:08:59;9.80;99.90
17893;DHT22;9072;51.918;4.380;2023-12-29T08:14:45;9.80;99.90
17893;DHT22;9072;51.918;4.380;2023-12-29T08:17:28;9.80;99.90
17893;DHT22;9072;51.918;4.380;2023-12-29T08:20:21;9.80;99.90
17893;DHT22;9072;51.918;4.380;2023-12-29T08:22:53;9.80;99.90
17893;DHT22;9072;51.918;4.380;2023-12-29T08:25:39;9.90;99.90
17893;DHT22;9072;51.918;4.380;2023-12-29T08:28:15;9.90;99.90
17893;DHT22;9072;51.918;4.380;2023-12-29T08:31:06;9.90;99.90
17893;DHT22;9072;51.918;4.380;2023-12-29T08:33:55;9.90;99.90
17893;DHT22;9072;51.918;4.380;2023-12-29T08:36:39;9.90;99.90
17893;DHT22;9072;51.918;4.380;2023-12-29T08:39:26;9.90;99.90
17893;DHT22;9072;51.918;4.380;2023-12-29T08:42:45;9.90;99.90
17893;DHT22;9072;51.918;4.380;2023-12-29T08:45:41;9.90;99.90
17893;DHT22;9072;51.918;4.380;2023-12-29T08:48:28;9.90;99.90
17893;DHT22;9072;51.918;4.380;2023-12-29T08:50:58;10.00;99.90
17893;DHT22;9072;51.918;4.380;2023-12-29T08:54:10;10.00;99.90
17893;DHT22;9072;51.918;4.380;2023-12-29T08:56:28;10.00;99.90
17893;DHT22;9072;51.918;4.380;2023-12-29T08:59:10;10.00;99.90
17893;DHT22;9072;51.918;4.380;2023-12-29T09:01:49;10.00;99.90
17893;DHT22;9072;51.918;4.380;2023-12-29T09:04:32;10.10;99.90
17893;DHT22;9072;51.918;4.380;2023-12-29T09:07:29;10.10;99.90
17893;DHT22;9072;51.918;4.380;2023-12-29T09:10:01;10.10;99.90
17893;DHT22;9072;51.918;4.380;2023-12-29T09:12:35;10.10;99.90
17893;DHT22;9072;51.918;4.380;2023-12-29T09:15:04;10.10;99.90
17893;DHT22;9072;51.918;4.380;2023-12-29T09:17:47;10.10;99.90
17893;DHT22;9072;51.918;4.380;2023-12-29T09:20:21;10.10;99.90
17893;DHT22;9072;51.918;4.380;2023-12-29T09:22:56;10.10;99.90
17893;DHT22;9072;51.918;4.380;2023-12-29T09:25:42;10.20;99.90
17893;DHT22;9072;51.918;4.380;2023-12-29T09:28:41;10.20;99.90
17893;DHT22;9072;51.918;4.380;2023-12-29T09:31:25;10.20;99.90
17893;DHT22;9072;51.918;4.380;2023-12-29T09:35:00;10.30;99.90
17893;DHT22;9072;51.918;4.380;2023-12-29T09:38:16;10.30;99.90
17893;DHT22;9072;51.918;4.380;2023-12-29T09:47:46;10.40;99.90
17893;DHT22;9072;51.918;4.380;2023-12-29T09:50:57;10.40;99.90
17893;DHT22;9072;51.918;4.380;2023-12-29T09:54:02;10.40;99.90
17893;DHT22;9072;51.918;4.380;2023-12-29T09:57:00;10.40;99.90
17893;DHT22;9072;51.918;4.380;2023-12-29T09:59:52;10.50;99.90
17893;DHT22;9072;51.918;4.380;2023-12-29T10:02:42;10.50;99.90
17893;DHT22;9072;51.918;4.380;2023-12-29T10:45:13;10.90;99.90
17893;DHT22;9072;51.918;4.380;2023-12-29T10:51:43;11.00;99.90
17893;DHT22;9072;51.918;4.380;2023-12-29T13:05:26;11.10;99.90
17893;DHT22;9072;51.918;4.380;2023-12-29T13:20:03;11.20;99.90
17893;DHT22;9072;51.918;4.380;2023-12-29T13:29:16;11.20;99.90
17893;DHT22;9072;51.918;4.380;2023-12-29T13:32:26;11.20;99.90
17893;DHT22;9072;51.918;4.380;2023-12-29T13:35:38;11.30;99.90
17893;DHT22;9072;51.918;4.380;2023-12-29T13:38:32;11.20;99.90
17893;DHT22;9072;51.918;4.380;2023-12-29T13:42:16;11.20;99.90
17893;DHT22;9072;51.918;4.380;2023-12-29T13:56:51;11.20;99.90
17893;DHT22;9072;51.918;4.380;2023-12-29T14:00:13;11.20;99.90
17893;DHT22;9072;51.918;4.380;2023-12-29T14:03:39;11.20;99.90
17893;DHT22;9072;51.918;4.380;2023-12-29T14:06:46;11.20;99.90
17893;DHT22;9072;51.918;4.380;2023-12-29T14:09:53;11.20;99.90
17893;DHT22;9072;51.918;4.380;2023-12-29T14:16:24;11.20;99.90
17893;DHT22;9072;51.918;4.380;2023-12-29T14:22:57;11.30;99.90
17893;DHT22;9072;51.918;4.380;2023-12-29T14:25:52;11.30;99.90
17893;DHT22;9072;51.918;4.380;2023-12-29T14:31:34;11.30;99.90
17893;DHT22;9072;51.918;4.380;2023-12-29T14:34:19;11.20;99.90
17893;DHT22;9072;51.918;4.380;2023-12-29T14:37:01;11.20;99.90
17893;DHT22;9072;51.918;4.380;2023-12-29T14:39:31;11.10;99.90
17893;DHT22;9072;51.918;4.380;2023-12-29T14:42:03;11.10;99.90
17893;DHT22;9072;51.918;4.380;2023-12-29T14:44:33;11.10;99.90
17893;DHT22;9072;51.918;4.380;2023-12-29T14:47:50;11.10;99.90
17893;DHT22;9072;51.918;4.380;2023-12-29T14:50:10;11.00;99.90
17893;DHT22;9072;51.918;4.380;2023-12-29T14:52:53;11.00;99.90
17893;DHT22;9072;51.918;4.380;2023-12-29T14:55:34;11.00;99.90
17893;DHT22;9072;51.918;4.380;2023-12-29T14:58:11;11.00;99.90
17893;DHT22;9072;51.918;4.380;2023-12-29T15:00:57;11.00;99.90
17893;DHT22;9072;51.918;4.380;2023-12-29T15:03:44;11.00;99.90
17893;DHT22;9072;51.918;4.380;2023-12-29T15:06:29;10.90;99.90
17893;DHT22;9072;51.918;4.380;2023-12-29T15:09:18;10.90;99.90
17893;DHT22;9072;51.918;4.380;2023-12-29T15:12:02;10.90;99.90
17893;DHT22;9072;51.918;4.380;2023-12-29T15:14:33;10.80;99.90
17893;DHT22;9072;51.918;4.380;2023-12-29T15:17:03;10.80;99.90
17893;DHT22;9072;51.918;4.380;2023-12-29T15:19:39;10.80;99.90
17893;DHT22;9072;51.918;4.380;2023-12-29T15:22:15;10.70;99.90
17893;DHT22;9072;51.918;4.380;2023-12-29T15:24:45;10.70;99.90
17893;DHT22;9072;51.918;4.380;2023-12-29T15:27:35;10.60;99.90
17893;DHT22;9072;51.918;4.380;2023-12-29T15:30:18;10.60;99.90
17893;DHT22;9072;51.918;4.380;2023-12-29T15:33:08;10.60;99.90
17893;DHT22;9072;51.918;4.380;2023-12-29T15:35:45;10.60;99.90
17893;DHT22;9072;51.918;4.380;2023-12-29T15:38:36;10.60;99.90
17893;DHT22;9072;51.918;4.380;2023-12-29T15:41:11;10.60;99.90
17893;DHT22;9072;51.918;4.380;2023-12-29T15:43:55;10.50;99.90
17893;DHT22;9072;51.918;4.380;2023-12-29T15:46:45;10.50;99.90
17893;DHT22;9072;51.918;4.380;2023-12-29T15:49:17;10.50;99.90
17893;DHT22;9072;51.918;4.380;2023-12-29T15:51:50;10.50;99.90
17893;DHT22;9072;51.918;4.380;2023-12-29T15:54:20;10.50;99.90
17893;DHT22;9072;51.918;4.380;2023-12-29T15:57:06;10.50;99.90
17893;DHT22;9072;51.918;4.380;2023-12-29T15:59:40;10.50;99.90
17893;DHT22;9072;51.918;4.380;2023-12-29T16:02:38;10.50;99.90
17893;DHT22;9072;51.918;4.380;2023-12-29T16:05:10;10.50;99.90
17893;DHT22;9072;51.918;4.380;2023-12-29T16:14:43;10.50;99.90
17893;DHT22;9072;51.918;4.380;2023-12-29T16:17:47;10.50;99.90
17893;DHT22;9072;51.918;4.380;2023-12-29T16:20:25;10.50;99.90
17893;DHT22;9072;51.918;4.380;2023-12-29T16:22:58;10.50;99.90
17893;DHT22;9072;51.918;4.380;2023-12-29T16:25:57;10.50;99.90
17893;DHT22;9072;51.918;4.380;2023-12-29T16:28:46;10.40;99.90
17893;DHT22;9072;51.918;4.380;2023-12-29T16:31:22;10.30;99.90
17893;DHT22;9072;51.918;4.380;2023-12-29T16:43:46;10.20;99.90
17893;DHT22;9072;51.918;4.380;2023-12-29T16:46:13;10.20;99.90
17893;DHT22;9072;51.918;4.380;2023-12-29T16:48:42;10.20;99.90
17893;DHT22;9072;51.918;4.380;2023-12-29T16:51:12;10.20;99.90
17893;DHT22;9072;51.918;4.380;2023-12-29T16:53:45;10.20;99.90
17893;DHT22;9072;51.918;4.380;2023-12-29T16:56:13;10.20;99.90
17893;DHT22;9072;51.918;4.380;2023-12-29T16:58:44;10.20;99.90
17893;DHT22;9072;51.918;4.380;2023-12-29T17:01:11;10.10;99.90
17893;DHT22;9072;51.918;4.380;2023-12-29T17:03:41;10.10;99.90
17893;DHT22;9072;51.918;4.380;2023-12-29T17:06:09;10.10;99.90
17893;DHT22;9072;51.918;4.380;2023-12-29T17:08:39;10.10;99.90
17893;DHT22;9072;51.918;4.380;2023-12-29T17:11:06;10.10;99.90
17893;DHT22;9072;51.918;4.380;2023-12-29T17:13:33;10.20;99.90
17893;DHT22;9072;51.918;4.380;2023-12-29T17:16:06;10.20;99.90
17893;DHT22;9072;51.918;4.380;2023-12-29T17:18:33;10.30;99.90
17893;DHT22;9072;51.918;4.380;2023-12-29T17:21:03;10.30;99.90
17893;DHT22;9072;51.918;4.380;2023-12-29T17:23:31;10.30;99.90
17893;DHT22;9072;51.918;4.380;2023-12-29T17:25:58;10.30;99.90
17893;DHT22;9072;51.918;4.380;2023-12-29T17:28:29;10.30;99.90
17893;DHT22;9072;51.918;4.380;2023-12-29T17:31:03;10.20;99.90
17893;DHT22;9072;51.918;4.380;2023-12-29T17:33:34;10.10;99.90
17893;DHT22;9072;51.918;4.380;2023-12-29T17:36:01;10.00;99.90
17893;DHT22;9072;51.918;4.380;2023-12-29T17:38:29;9.90;99.90
17893;DHT22;9072;51.918;4.380;2023-12-29T17:40:56;9.80;99.90
17893;DHT22;9072;51.918;4.380;2023-12-29T17:43:23;9.70;99.90
17893;DHT22;9072;51.918;4.380;2023-12-29T17:45:52;9.60;99.90
17893;DHT22;9072;51.918;4.380;2023-12-29T17:48:26;9.50;99.90
17893;DHT22;9072;51.918;4.380;2023-12-29T17:50:54;9.50;99.90
17893;DHT22;9072;51.918;4.380;2023-12-29T17:53:27;9.50;99.90
17893;DHT22;9072;51.918;4.380;2023-12-29T17:55:56;9.40;99.90
17893;DHT22;9072;51.918;4.380;2023-12-29T17:58:34;9.40;99.90
17893;DHT22;9072;51.918;4.380;2023-12-29T18:01:15;9.40;99.90
17893;DHT22;9072;51.918;4.380;2023-12-29T18:07:00;9.30;99.90
17893;DHT22;9072;51.918;4.380;2023-12-29T18:09:53;9.30;99.90
17893;DHT22;9072;51.918;4.380;2023-12-29T18:12:36;9.20;99.90
17893;DHT22;9072;51.918;4.380;2023-12-29T18:15:10;9.30;99.90
17893;DHT22;9072;51.918;4.380;2023-12-29T18:17:46;9.30;99.90
17893;DHT22;9072;51.918;4.380;2023-12-29T18:20:15;9.20;99.90
17893;DHT22;9072;51.918;4.380;2023-12-29T18:22:46;9.20;99.90
17893;DHT22;9072;51.918;4.380;2023-12-29T18:25:18;9.20;99.90
17893;DHT22;9072;51.918;4.380;2023-12-29T18:27:48;9.10;99.90
17893;DHT22;9072;51.918;4.380;2023-12-29T18:30:17;9.10;99.90
17893;DHT22;9072;51.918;4.380;2023-12-29T18:32:45;9.10;99.90
17893;DHT22;9072;51.918;4.380;2023-12-29T18:35:15;9.10;99.90
17893;DHT22;9072;51.918;4.380;2023-12-29T18:37:51;9.00;99.90
17893;DHT22;9072;51.918;4.380;2023-12-29T18:40:21;9.00;99.90
17893;DHT22;9072;51.918;4.380;2023-12-29T18:42:54;9.00;99.90
17893;DHT22;9072;51.918;4.380;2023-12-29T18:45:23;9.00;99.90
17893;DHT22;9072;51.918;4.380;2023-12-29T18:48:00;9.00;99.90
17893;DHT22;9072;51.918;4.380;2023-12-29T18:50:47;9.00;99.90
17893;DHT22;9072;51.918;4.380;2023-12-29T18:53:22;9.00;99.90
17893;DHT22;9072;51.918;4.380;2023-12-29T18:55:56;9.00;99.90
17893;DHT22;9072;51.918;4.380;2023-12-29T18:58:24;9.00;99.90
17893;DHT22;9072;51.918;4.380;2023-12-29T19:00:54;9.00;99.90
17893;DHT22;9072;51.918;4.380;2023-12-29T19:03:30;9.10;99.90
17893;DHT22;9072;51.918;4.380;2023-12-29T19:06:00;9.10;99.90
17893;DHT22;9072;51.918;4.380;2023-12-29T19:08:30;9.10;99.90
17893;DHT22;9072;51.918;4.380;2023-12-29T19:11:00;9.10;99.90
17893;DHT22;9072;51.918;4.380;2023-12-29T19:13:30;9.10;99.90
17893;DHT22;9072;51.918;4.380;2023-12-29T19:15:57;9.10;99.90
17893;DHT22;9072;51.918;4.380;2023-12-29T19:18:30;9.10;99.90
17893;DHT22;9072;51.918;4.380;2023-12-29T19:21:18;9.20;99.90
17893;DHT22;9072;51.918;4.380;2023-12-29T19:23:51;9.20;99.90
17893;DHT22;9072;51.918;4.380;2023-12-29T19:26:30;9.20;99.90
17893;DHT22;9072;51.918;4.380;2023-12-29T19:28:57;9.20;99.90
17893;DHT22;9072;51.918;4.380;2023-12-29T19:31:27;9.20;99.90
17893;DHT22;9072;51.918;4.380;2023-12-29T19:33:54;9.20;99.90
17893;DHT22;9072;51.918;4.380;2023-12-29T19:36:35;9.20;99.90
17893;DHT22;9072;51.918;4.380;2023-12-29T19:39:07;9.20;99.90
17893;DHT22;9072;51.918;4.380;2023-12-29T19:41:44;9.30;99.90
17893;DHT22;9072;51.918;4.380;2023-12-29T19:44:53;9.30;99.90
17893;DHT22;9072;51.918;4.380;2023-12-29T19:47:27;9.40;99.90
17893;DHT22;9072;51.918;4.380;2023-12-29T19:49:55;9.40;99.90
17893;DHT22;9072;51.918;4.380;2023-12-29T19:52:24;9.50;99.90
17893;DHT22;9072;51.918;4.380;2023-12-29T19:54:52;9.50;99.90
17893;DHT22;9072;51.918;4.380;2023-12-29T19:57:20;9.50;99.90
17893;DHT22;9072;51.918;4.380;2023-12-29T19:59:50;9.60;99.90
17893;DHT22;9072;51.918;4.380;2023-12-29T20:02:21;9.60;99.90
17893;DHT22;9072;51.918;4.380;2023-12-29T20:04:55;9.60;99.90
17893;DHT22;9072;51.918;4.380;2023-12-29T20:07:28;9.60;99.90
17893;DHT22;9072;51.918;4.380;2023-12-29T20:09:57;9.60;99.90
17893;DHT22;9072;51.918;4.380;2023-12-29T20:12:25;9.60;99.90
17893;DHT22;9072;51.918;4.380;2023-12-29T20:14:54;9.60;99.90
17893;DHT22;9072;51.918;4.380;2023-12-29T20:17:22;9.60;99.90
17893;DHT22;9072;51.918;4.380;2023-12-29T20:19:52;9.60;99.90
17893;DHT22;9072;51.918;4.380;2023-12-29T20:25:40;9.60;99.90
17893;DHT22;9072;51.918;4.380;2023-12-29T20:31:34;9.60;99.90
17893;DHT22;9072;51.918;4.380;2023-12-29T20:37:39;9.60;99.90
17893;DHT22;9072;51.918;4.380;2023-12-29T20:47:13;9.60;99.90
17893;DHT22;9072;51.918;4.380;2023-12-29T20:57:37;9.70;99.90
17893;DHT22;9072;51.918;4.380;2023-12-29T21:00:39;9.70;99.90
17893;DHT22;9072;51.918;4.380;2023-12-29T21:10:05;9.70;99.90
17893;DHT22;9072;51.918;4.380;2023-12-29T21:30:17;9.60;99.90
17893;DHT22;9072;51.918;4.380;2023-12-29T21:32:49;9.60;99.90
17893;DHT22;9072;51.918;4.380;2023-12-29T21:35:37;9.60;99.90
17893;DHT22;9072;51.918;4.380;2023-12-29T21:38:34;9.60;99.90
17893;DHT22;9072;51.918;4.380;2023-12-29T21:41:24;9.60;99.90
17893;DHT22;9072;51.918;4.380;2023-12-29T21:43:58;9.60;99.90
17893;DHT22;9072;51.918;4.380;2023-12-29T21:46:27;9.60;99.90
17893;DHT22;9072;51.918;4.380;2023-12-29T21:49:07;9.60;99.90
17893;DHT22;9072;51.918;4.380;2023-12-29T21:51:49;9.50;99.90
17893;DHT22;9072;51.918;4.380;2023-12-29T21:54:19;9.50;99.90
17893;DHT22;9072;51.918;4.380;2023-12-29T21:56:51;9.50;99.90
17893;DHT22;9072;51.918;4.380;2023-12-29T21:59:25;9.50;99.90
17893;DHT22;9072;51.918;4.380;2023-12-29T22:02:00;9.50;99.90
17893;DHT22;9072;51.918;4.380;2023-12-29T22:04:29;9.50;99.90
17893;DHT22;9072;51.918;4.380;2023-12-29T22:06:57;9.50;99.90
17893;DHT22;9072;51.918;4.380;2023-12-29T22:09:32;9.50;99.90
17893;DHT22;9072;51.918;4.380;2023-12-29T22:12:06;9.40;99.90
17893;DHT22;9072;51.918;4.380;2023-12-29T22:14:41;9.40;99.90
17893;DHT22;9072;51.918;4.380;2023-12-29T22:17:10;9.40;99.90
17893;DHT22;9072;51.918;4.380;2023-12-29T22:19:41;9.30;99.90
17893;DHT22;9072;51.918;4.380;2023-12-29T22:22:10;9.30;99.90
17893;DHT22;9072;51.918;4.380;2023-12-29T22:24:40;9.30;99.90
17893;DHT22;9072;51.918;4.380;2023-12-29T22:27:16;9.30;99.90
17893;DHT22;9072;51.918;4.380;2023-12-29T22:29:50;9.30;99.90
17893;DHT22;9072;51.918;4.380;2023-12-29T22:32:20;9.20;99.90
17893;DHT22;9072;51.918;4.380;2023-12-29T22:34:50;9.20;99.90
17893;DHT22;9072;51.918;4.380;2023-12-29T22:37:23;9.20;99.90
17893;DHT22;9072;51.918;4.380;2023-12-29T22:39:53;9.20;99.90
17893;DHT22;9072;51.918;4.380;2023-12-29T22:42:31;9.20;99.90
17893;DHT22;9072;51.918;4.380;2023-12-29T22:45:02;9.20;99.90
17893;DHT22;9072;51.918;4.380;2023-12-29T22:47:36;9.10;99.90
17893;DHT22;9072;51.918;4.380;2023-12-29T22:50:08;9.10;99.90
17893;DHT22;9072;51.918;4.380;2023-12-29T22:52:36;9.00;99.90
17893;DHT22;9072;51.918;4.380;2023-12-29T22:55:11;9.00;99.90
17893;DHT22;9072;51.918;4.380;2023-12-29T22:57:43;9.00;99.90
17893;DHT22;9072;51.918;4.380;2023-12-29T23:00:12;9.00;99.90
17893;DHT22;9072;51.918;4.380;2023-12-29T23:02:49;9.00;99.90
17893;DHT22;9072;51.918;4.380;2023-12-29T23:05:19;9.00;99.90
17893;DHT22;9072;51.918;4.380;2023-12-29T23:07:48;9.00;99.90
17893;DHT22;9072;51.918;4.380;2023-12-29T23:10:20;9.00;99.90
17893;DHT22;9072;51.918;4.380;2023-12-29T23:12:47;9.00;99.90
17893;DHT22;9072;51.918;4.380;2023-12-29T23:15:15;9.00;99.90
17893;DHT22;9072;51.918;4.380;2023-12-29T23:17:42;9.00;99.90
17893;DHT22;9072;51.918;4.380;2023-12-29T23:20:12;9.00;99.90
17893;DHT22;9072;51.918;4.380;2023-12-29T23:22:40;9.10;99.90
17893;DHT22;9072;51.918;4.380;2023-12-29T23:25:09;9.10;99.90
17893;DHT22;9072;51.918;4.380;2023-12-29T23:27:37;9.10;99.90
17893;DHT22;9072;51.918;4.380;2023-12-29T23:30:06;9.10;99.90
17893;DHT22;9072;51.918;4.380;2023-12-29T23:32:34;9.10;99.90
17893;DHT22;9072;51.918;4.380;2023-12-29T23:35:03;9.00;99.90
17893;DHT22;9072;51.918;4.380;2023-12-29T23:37:32;9.00;99.90
17893;DHT22;9072;51.918;4.380;2023-12-29T23:40:00;9.00;99.90
17893;DHT22;9072;51.918;4.380;2023-12-29T23:42:29;9.00;99.90
17893;DHT22;9072;51.918;4.380;2023-12-29T23:44:56;9.00;99.90
17893;DHT22;9072;51.918;4.380;2023-12-29T23:47:28;8.90;99.90
17893;DHT22;9072;51.918;4.380;2023-12-29T23:49:56;8.90;99.90
17893;DHT22;9072;51.918;4.380;2023-12-29T23:52:23;8.90;99.90
17893;DHT22;9072;51.918;4.380;2023-12-29T23:54:58;8.90;99.90
17893;DHT22;9072;51.918;4.380;2023-12-29T23:57:29;8.90;99.90
17893;DHT22;9072;51.918;4.380;2023-12-29T23:59:56;8.90;99.90
